Startpagina
METAR-TAF:

METAR-TAF

Vliegvelden :

Kalispell Glacier Park, Montana, Verenigde Staten

breedte: 48-18-15N, lengte: 114-15-49W, hoogte: 906 m

Actueel weer

Dit bericht is 51 minuten geleden gemaakt, om 10:55 UTC
Wind 3 kt uit het noordnoordwesten
Temperatuur 9°C
Vochtigheid 87%
Druk 1018 hPa
Zicht: 16.1 km
Onbewolkt

METAR: KGPI 191055Z AUTO 33003KT 10SM CLR 09/07 A3005 RMK AO2 SLP158 T00890067

Tijdstip: 05:46 (11:46 UTC)

Verwachting

Dit bericht is 26 minuten geleden gemaakt, om 11:20 UTC
Verwachting geldig van 19 om 12 UTC tot 20 om 12 UTC
Wind 4 kt uit variabele richting
Zicht: 10 km
Onbewolkt
Van 19 om 1900 UTC
Wind 7 kt uit het zuiden
Zicht: 10 km
Verspreide wolken op 9000 ft
buien in de omgeving
Van 20 om 0000 UTC
Wind 7 kt uit het zuiden
Zicht: 10 km
Onbewolkt

TAF: KGPI 191120Z 1912/2012 VRB04KT P6SM SKC FM191900 17007KT P6SM VCSH SCT090 FM200000 18007KT P6SM SKC

Waarnemingen en weersverwachtingen van meer dan 4000 vliegvelden (METAR en TAF).

De beschikbare stations zijn de gele en rode punten op de kaart.

Ga met uw muis naar het station om de naam te zien.

Klik dan om waarnemingen en weersverwachtingen te zien.

kaart wijzigen: klik op de groene knoppen met een zwart kruis om in te zoomen, op de groene knop met een streepje om uit te zoomen of op de groene pijlen voor aangrenzende kaarten.


METAR-TAF: